Time;durP1;ratioP1;P1;durP2;ratioP2;P2;SDS_P1;SDS_P2;PMS_P1;PMS_P2;Temp;Humidity;BMP_temperature;BMP_pressure;BME280_temperature;BME280_humidity;BME280_pressure;Samples;Min_cycle;Max_cycle;Signal;HPM_P1;HPM_P2
2021/12/17 00:00:24;;;;;;;;;81.67;61.67;;;;;;;;5063108;28;11610;-81
2021/12/17 00:05:45;;;;;;;;;69.50;56.25;;;;;;;;5064459;28;11593;-84
2021/12/17 00:08:14;;;;;;;;;72.00;58.67;;;;;;;;5054850;28;11603;-76
2021/12/17 00:10:42;;;;;;;;;68.75;55.25;;;;;;;;5059376;28;11601;-78
2021/12/17 00:13:11;;;;;;;;;67.25;54.50;;;;;;;;5059019;28;11717;-77
2021/12/17 00:15:40;;;;;;;;;67.75;55.50;;;;;;;;5065616;28;11556;-81
2021/12/17 00:18:14;;;;;;;;;62.75;48.75;;;;;;;;5064311;28;12426;-87
2021/12/17 00:48:35;;;;;;;;;56.75;45.00;;;;;;;;5084791;28;11529;-84
2021/12/17 00:51:34;;;;;;;;;66.50;52.00;;;;;;;;5075507;28;11726;-79
2021/12/17 00:54:01;;;;;;;;;48.50;44.00;;;;;;;;5072397;28;11554;-85
2021/12/17 00:56:29;;;;;;;;;48.00;43.50;;;;;;;;5075722;28;11551;-81
2021/12/17 00:58:57;;;;;;;;;62.00;49.50;;;;;;;;5070529;28;11640;-80
2021/12/17 01:01:24;;;;;;;;;53.25;42.50;;;;;;;;5074182;28;11516;-84
2021/12/17 01:03:55;;;;;;;;;49.00;44.00;;;;;;;;5075704;28;11521;-84
2021/12/17 01:06:23;;;;;;;;;50.00;42.25;;;;;;;;5047503;28;11556;-81
2021/12/17 01:08:51;;;;;;;;;55.25;47.75;;;;;;;;5083391;28;11591;-81
2021/12/17 01:11:19;;;;;;;;;55.00;48.00;;;;;;;;5073313;28;11621;-80
2021/12/17 01:13:49;;;;;;;;;67.00;48.25;;;;;;;;5066529;28;11646;-80
2021/12/17 01:16:17;;;;;;;;;59.00;48.25;;;;;;;;5060863;28;11528;-87
2021/12/17 01:18:54;;;;;;;;;54.50;44.00;;;;;;;;5074633;28;12438;-84
2021/12/17 01:21:32;;;;;;;;;52.25;44.00;;;;;;;;5080029;28;11547;-86
2021/12/17 01:24:12;;;;;;;;;38.75;38.00;;;;;;;;5075297;28;11514;-85
2021/12/17 01:43:22;;;;;;;;;50.00;43.00;;;;;;;;5078719;28;11667;-87
2021/12/17 01:45:49;;;;;;;;;43.00;39.75;;;;;;;;5064931;28;11579;-85
2021/12/17 01:48:21;;;;;;;;;44.25;40.50;;;;;;;;5080825;28;11716;-84
2021/12/17 01:56:37;;;;;;;;;50.75;43.25;;;;;;;;5078674;28;11524;-79
2021/12/17 01:59:29;;;;;;;;;46.75;42.50;;;;;;;;5078063;28;11621;-88
2021/12/17 02:02:02;;;;;;;;;52.00;44.25;;;;;;;;5076738;28;11555;-84
2021/12/17 02:04:30;;;;;;;;;60.33;47.00;;;;;;;;5075022;28;11521;-81
2021/12/17 02:06:59;;;;;;;;;43.00;38.25;;;;;;;;5068604;28;11607;-79
2021/12/17 02:12:36;;;;;;;;;49.25;41.25;;;;;;;;5080010;28;11577;-86
2021/12/17 02:29:56;;;;;;;;;57.75;48.50;;;;;;;;5058983;28;11540;-82
2021/12/17 02:32:26;;;;;;;;;69.33;55.33;;;;;;;;5073134;28;11627;-85
2021/12/17 02:35:09;;;;;;;;;65.00;52.67;;;;;;;;5081467;28;12446;-86
2021/12/17 02:37:41;;;;;;;;;78.67;59.00;;;;;;;;5073162;28;11620;-86
2021/12/17 02:40:20;;;;;;;;;72.67;57.33;;;;;;;;5081858;28;12377;-78
2021/12/17 02:45:36;;;;;;;;;67.25;54.00;;;;;;;;5070601;28;11692;-82
2021/12/17 02:48:06;;;;;;;;;74.50;58.00;;;;;;;;5075788;28;11565;-78
2021/12/17 02:50:35;;;;;;;;;68.50;57.25;;;;;;;;5073031;28;11716;-78
2021/12/17 02:53:07;;;;;;;;;67.75;55.00;;;;;;;;5061333;28;11555;-85
2021/12/17 02:55:36;;;;;;;;;64.00;49.25;;;;;;;;5081521;28;11537;-85
2021/12/17 02:58:05;;;;;;;;;68.75;54.50;;;;;;;;5040034;28;11575;-83
2021/12/17 03:00:33;;;;;;;;;80.75;62.50;;;;;;;;5079013;28;11488;-82
2021/12/17 03:03:02;;;;;;;;;69.50;53.00;;;;;;;;5079659;28;11616;-84
2021/12/17 03:05:30;;;;;;;;;61.75;51.50;;;;;;;;5076629;28;11569;-78
2021/12/17 03:07:58;;;;;;;;;63.50;51.00;;;;;;;;5073405;28;11537;-83
2021/12/17 03:10:27;;;;;;;;;65.25;53.25;;;;;;;;5078251;28;11660;-80
2021/12/17 03:12:59;;;;;;;;;68.00;54.75;;;;;;;;5081217;28;11609;-81
2021/12/17 03:15:35;;;;;;;;;64.50;52.25;;;;;;;;5077455;28;11562;-79
2021/12/17 03:18:35;;;;;;;;;71.75;57.00;;;;;;;;5077191;28;11524;-85
2021/12/17 03:23:44;;;;;;;;;58.50;47.75;;;;;;;;5075083;28;11551;-81
2021/12/17 03:26:15;;;;;;;;;69.25;53.25;;;;;;;;5074645;28;11529;-84
2021/12/17 03:28:45;;;;;;;;;58.75;47.00;;;;;;;;5073792;28;11550;-80
2021/12/17 03:31:13;;;;;;;;;66.25;53.00;;;;;;;;5070105;28;11467;-83
2021/12/17 03:33:42;;;;;;;;;64.00;50.50;;;;;;;;5080577;28;11489;-85
2021/12/17 03:36:11;;;;;;;;;62.00;53.00;;;;;;;;5074904;28;11542;-78
2021/12/17 03:38:40;;;;;;;;;63.25;51.00;;;;;;;;5069725;28;11572;-78
2021/12/17 03:41:17;;;;;;;;;59.50;48.25;;;;;;;;5075445;28;11593;-81
2021/12/17 03:43:46;;;;;;;;;58.75;49.25;;;;;;;;5067516;28;12391;-79
2021/12/17 03:46:13;;;;;;;;;68.75;55.25;;;;;;;;5078104;28;11598;-85
2021/12/17 03:48:41;;;;;;;;;59.75;49.75;;;;;;;;5080286;28;11533;-84
2021/12/17 03:51:13;;;;;;;;;59.75;50.00;;;;;;;;5081176;28;11552;-80
2021/12/17 03:53:42;;;;;;;;;63.00;50.25;;;;;;;;5074955;28;11569;-79
2021/12/17 03:56:09;;;;;;;;;60.00;50.00;;;;;;;;5080271;28;11554;-80
2021/12/17 03:58:37;;;;;;;;;59.50;50.75;;;;;;;;5086740;28;11539;-78
2021/12/17 04:01:06;;;;;;;;;65.00;50.75;;;;;;;;5082781;28;11505;-84
2021/12/17 04:03:34;;;;;;;;;58.25;47.50;;;;;;;;5074836;28;11704;-80
2021/12/17 04:06:01;;;;;;;;;59.25;47.00;;;;;;;;5059474;28;11605;-80
2021/12/17 04:08:29;;;;;;;;;55.75;47.75;;;;;;;;5061109;28;11708;-80
2021/12/17 04:11:03;;;;;;;;;63.25;50.25;;;;;;;;5077803;28;12354;-87
2021/12/17 04:13:34;;;;;;;;;60.00;50.25;;;;;;;;5085742;28;11639;-81
2021/12/17 04:16:04;;;;;;;;;60.75;49.25;;;;;;;;5068939;28;11564;-81
2021/12/17 04:18:35;;;;;;;;;52.00;45.50;;;;;;;;5073550;28;12308;-81
2021/12/17 04:21:04;;;;;;;;;63.50;51.75;;;;;;;;5083152;28;11579;-82
2021/12/17 04:23:32;;;;;;;;;68.00;53.25;;;;;;;;5079644;28;12298;-78
2021/12/17 04:26:00;;;;;;;;;57.00;49.50;;;;;;;;5075837;28;11598;-82
2021/12/17 04:28:28;;;;;;;;;64.25;52.00;;;;;;;;5084900;28;11556;-79
2021/12/17 04:30:55;;;;;;;;;62.25;49.75;;;;;;;;5072647;28;11546;-86
2021/12/17 04:33:23;;;;;;;;;70.75;55.00;;;;;;;;5073095;28;11572;-86
2021/12/17 04:35:51;;;;;;;;;72.75;54.50;;;;;;;;5070679;28;11550;-82
2021/12/17 04:38:21;;;;;;;;;72.00;51.75;;;;;;;;5074882;28;12364;-85
2021/12/17 04:40:50;;;;;;;;;64.50;54.25;;;;;;;;5078603;28;11581;-80
2021/12/17 04:43:31;;;;;;;;;73.50;58.00;;;;;;;;5077875;28;11558;-84
2021/12/17 04:46:12;;;;;;;;;62.00;51.75;;;;;;;;5075254;28;11559;-79
2021/12/17 04:59:40;;;;;;;;;68.50;53.50;;;;;;;;5086412;28;11538;-81
2021/12/17 05:02:07;;;;;;;;;64.00;53.00;;;;;;;;5078565;28;11511;-81
2021/12/17 05:04:35;;;;;;;;;70.50;55.75;;;;;;;;5079206;28;11577;-87
2021/12/17 05:07:06;;;;;;;;;72.50;57.00;;;;;;;;5082047;28;11572;-83
2021/12/17 05:09:41;;;;;;;;;73.50;58.00;;;;;;;;5073003;28;11548;-85
2021/12/17 05:20:30;;;;;;;;;73.50;57.25;;;;;;;;5067507;28;11542;-80
2021/12/17 05:23:00;;;;;;;;;66.50;54.50;;;;;;;;5059975;28;11594;-81
2021/12/17 05:25:29;;;;;;;;;64.50;52.50;;;;;;;;5074148;28;11547;-86
2021/12/17 05:28:01;;;;;;;;;66.00;52.25;;;;;;;;5073923;28;11564;-81
2021/12/17 05:30:28;;;;;;;;;64.25;54.50;;;;;;;;5077594;28;11573;-84
2021/12/17 05:32:57;;;;;;;;;74.75;57.00;;;;;;;;5048716;28;11542;-86
2021/12/17 05:35:26;;;;;;;;;73.50;55.50;;;;;;;;5070497;28;11537;-86
2021/12/17 05:37:53;;;;;;;;;66.50;50.75;;;;;;;;5055645;28;12359;-79
2021/12/17 05:40:22;;;;;;;;;62.25;51.00;;;;;;;;5077615;28;11624;-83
2021/12/17 05:42:54;;;;;;;;;63.75;50.50;;;;;;;;5082776;28;11693;-83
2021/12/17 05:45:32;;;;;;;;;64.25;50.50;;;;;;;;5081522;28;11630;-87
2021/12/17 05:48:00;;;;;;;;;64.75;53.00;;;;;;;;5070635;28;11557;-82
2021/12/17 05:50:28;;;;;;;;;63.50;53.00;;;;;;;;5080976;28;11559;-81
2021/12/17 05:52:55;;;;;;;;;65.50;54.50;;;;;;;;5081677;28;11524;-85
2021/12/17 05:55:24;;;;;;;;;56.50;47.75;;;;;;;;5082893;28;11563;-84
2021/12/17 05:57:53;;;;;;;;;61.00;50.25;;;;;;;;5080759;28;11564;-85
2021/12/17 06:00:21;;;;;;;;;73.50;56.25;;;;;;;;5086890;28;11557;-84
2021/12/17 06:02:49;;;;;;;;;68.75;53.50;;;;;;;;5082813;28;11557;-81
2021/12/17 06:05:17;;;;;;;;;69.50;55.50;;;;;;;;5086468;28;11575;-82
2021/12/17 06:07:45;;;;;;;;;62.75;51.50;;;;;;;;5085948;28;11525;-83
2021/12/17 06:10:13;;;;;;;;;65.50;50.25;;;;;;;;5083583;28;11545;-84
2021/12/17 06:12:42;;;;;;;;;67.00;56.25;;;;;;;;5082661;28;11534;-82
2021/12/17 06:15:11;;;;;;;;;57.25;45.75;;;;;;;;5064986;28;11613;-92
2021/12/17 06:17:39;;;;;;;;;57.75;47.50;;;;;;;;5086975;28;11946;-83
2021/12/17 06:20:09;;;;;;;;;64.00;50.75;;;;;;;;5085340;28;11566;-77
2021/12/17 06:22:37;;;;;;;;;60.75;50.50;;;;;;;;5071418;28;11672;-77
2021/12/17 06:25:05;;;;;;;;;64.00;51.75;;;;;;;;5076482;28;11550;-75
2021/12/17 06:27:32;;;;;;;;;64.25;51.50;;;;;;;;5073980;28;11624;-78
2021/12/17 06:30:02;;;;;;;;;66.75;53.25;;;;;;;;5053644;28;11650;-75
2021/12/17 06:32:29;;;;;;;;;63.25;51.50;;;;;;;;5078212;28;11511;-78
2021/12/17 06:34:57;;;;;;;;;50.00;42.75;;;;;;;;5079858;28;11671;-79
2021/12/17 06:37:24;;;;;;;;;60.25;49.25;;;;;;;;5079582;28;11578;-79
2021/12/17 06:39:51;;;;;;;;;58.75;49.50;;;;;;;;5071967;28;11654;-75
2021/12/17 06:42:19;;;;;;;;;62.25;51.00;;;;;;;;5073958;28;11619;-79
2021/12/17 06:44:48;;;;;;;;;63.75;53.50;;;;;;;;5073513;28;11548;-76
2021/12/17 06:47:27;;;;;;;;;57.75;48.75;;;;;;;;5048043;28;11624;-78
2021/12/17 06:50:01;;;;;;;;;59.00;46.25;;;;;;;;5060143;28;11561;-75
2021/12/17 06:55:36;;;;;;;;;68.75;54.25;;;;;;;;5066532;28;11544;-77
2021/12/17 07:01:04;;;;;;;;;61.75;51.50;;;;;;;;5076302;28;11654;-78
2021/12/17 07:06:30;;;;;;;;;58.25;47.50;;;;;;;;5070532;28;11532;-77
2021/12/17 07:17:08;;;;;;;;;61.75;49.25;;;;;;;;5029040;28;12489;-75
2021/12/17 07:17:31;;;;;;;;;59.25;46.75;;;;;;;;5080619;28;11508;-79
2021/12/17 07:23:09;;;;;;;;;70.00;55.00;;;;;;;;5059018;28;11551;-76
2021/12/17 07:34:15;;;;;;;;;60.50;50.50;;;;;;;;4991944;28;12437;-76
2021/12/17 07:36:56;;;;;;;;;56.00;46.50;;;;;;;;5007020;28;12397;-74
2021/12/17 07:39:22;;;;;;;;;62.00;50.75;;;;;;;;5046378;28;11546;-77
2021/12/17 07:41:49;;;;;;;;;64.00;50.00;;;;;;;;5078804;28;12290;-75
2021/12/17 07:44:17;;;;;;;;;46.50;38.75;;;;;;;;5077725;28;11544;-75
2021/12/17 07:46:44;;;;;;;;;61.25;50.75;;;;;;;;5084352;28;11585;-74
2021/12/17 07:49:12;;;;;;;;;60.00;50.50;;;;;;;;5059736;28;11560;-73
2021/12/17 07:51:39;;;;;;;;;60.00;49.00;;;;;;;;5072718;28;11554;-73
2021/12/17 07:54:08;;;;;;;;;60.50;50.00;;;;;;;;5083921;28;11629;-77
2021/12/17 07:56:37;;;;;;;;;61.00;49.75;;;;;;;;5082380;28;11595;-74
2021/12/17 07:59:05;;;;;;;;;64.50;51.50;;;;;;;;5071001;28;11649;-73
2021/12/17 08:01:33;;;;;;;;;55.50;46.00;;;;;;;;5067423;28;11546;-74
2021/12/17 08:04:00;;;;;;;;;63.00;50.50;;;;;;;;5069751;28;12363;-74
2021/12/17 08:06:27;;;;;;;;;59.25;50.25;;;;;;;;5078279;28;11564;-77
2021/12/17 08:08:54;;;;;;;;;60.75;49.50;;;;;;;;5080593;28;11612;-76
2021/12/17 08:11:23;;;;;;;;;64.00;51.25;;;;;;;;5080280;28;11561;-77
2021/12/17 08:13:53;;;;;;;;;67.25;55.00;;;;;;;;5086686;28;11541;-75
2021/12/17 08:16:32;;;;;;;;;58.50;49.25;;;;;;;;5085531;28;11606;-75
2021/12/17 08:24:48;;;;;;;;;65.75;53.75;;;;;;;;5085034;28;11526;-75
2021/12/17 08:30:38;;;;;;;;;67.50;55.75;;;;;;;;5081224;28;11819;-76
2021/12/17 08:33:06;;;;;;;;;66.00;50.25;;;;;;;;5086479;28;11593;-75
2021/12/17 08:35:34;;;;;;;;;69.00;56.75;;;;;;;;5084243;28;11644;-76
2021/12/17 08:38:05;;;;;;;;;63.25;51.75;;;;;;;;5091840;28;11700;-76
2021/12/17 08:40:32;;;;;;;;;61.50;51.25;;;;;;;;5068031;28;11569;-76
2021/12/17 08:43:01;;;;;;;;;68.75;54.00;;;;;;;;5080690;28;12531;-76
2021/12/17 08:45:29;;;;;;;;;68.50;56.25;;;;;;;;5055323;28;11662;-75
2021/12/17 08:47:56;;;;;;;;;75.25;59.50;;;;;;;;5086339;28;11544;-75
2021/12/17 08:50:24;;;;;;;;;51.00;42.75;;;;;;;;5085842;28;12095;-75
2021/12/17 08:52:51;;;;;;;;;67.50;52.00;;;;;;;;5085352;28;12371;-76
2021/12/17 08:55:19;;;;;;;;;71.25;54.50;;;;;;;;5085325;28;11572;-76
2021/12/17 08:57:48;;;;;;;;;60.50;49.25;;;;;;;;5086230;28;11544;-76
2021/12/17 09:00:17;;;;;;;;;75.50;59.25;;;;;;;;5082384;28;11610;-75
2021/12/17 09:02:45;;;;;;;;;64.50;53.00;;;;;;;;5083877;28;11556;-76
2021/12/17 09:05:12;;;;;;;;;79.00;62.00;;;;;;;;5084681;28;11653;-75
2021/12/17 09:07:39;;;;;;;;;70.00;56.00;;;;;;;;5052937;28;11567;-75
2021/12/17 09:10:08;;;;;;;;;64.00;53.75;;;;;;;;5079047;28;11616;-75
2021/12/17 09:12:37;;;;;;;;;65.00;54.75;;;;;;;;5082965;28;12379;-75
2021/12/17 09:15:08;;;;;;;;;69.75;55.50;;;;;;;;5084444;28;11601;-75
2021/12/17 09:17:37;;;;;;;;;64.25;51.75;;;;;;;;5052895;28;11586;-76
2021/12/17 09:20:06;;;;;;;;;67.50;51.50;;;;;;;;5065182;28;11595;-76
2021/12/17 09:22:33;;;;;;;;;67.25;54.00;;;;;;;;5089876;28;11550;-76
2021/12/17 09:25:01;;;;;;;;;63.00;50.25;;;;;;;;5085671;28;11598;-75
2021/12/17 09:27:28;;;;;;;;;63.75;50.25;;;;;;;;5084728;28;12395;-76
2021/12/17 09:29:55;;;;;;;;;52.50;45.75;;;;;;;;5085131;28;11568;-76
2021/12/17 09:32:22;;;;;;;;;67.50;54.50;;;;;;;;5084307;28;11534;-77
2021/12/17 09:34:51;;;;;;;;;64.75;51.75;;;;;;;;5080058;28;11581;-76
2021/12/17 09:37:18;;;;;;;;;67.00;56.25;;;;;;;;5088172;28;11606;-76
2021/12/17 09:39:46;;;;;;;;;60.50;50.00;;;;;;;;5083976;28;11691;-76
2021/12/17 09:42:15;;;;;;;;;68.00;55.75;;;;;;;;5085164;28;12364;-75
2021/12/17 09:44:43;;;;;;;;;58.50;48.25;;;;;;;;5084515;28;11671;-76
2021/12/17 09:47:10;;;;;;;;;60.50;50.25;;;;;;;;5084648;28;11544;-76
2021/12/17 09:49:38;;;;;;;;;65.00;53.00;;;;;;;;5081573;28;11511;-76
2021/12/17 09:52:08;;;;;;;;;60.00;46.75;;;;;;;;5074063;28;11571;-74
2021/12/17 09:54:36;;;;;;;;;67.50;53.50;;;;;;;;5083285;28;11769;-75
2021/12/17 09:57:04;;;;;;;;;72.00;55.75;;;;;;;;5081992;28;11642;-75
2021/12/17 09:59:32;;;;;;;;;69.75;52.00;;;;;;;;5084712;28;11562;-75
2021/12/17 10:01:59;;;;;;;;;70.00;51.75;;;;;;;;5083025;28;11527;-74
2021/12/17 10:04:28;;;;;;;;;58.50;49.25;;;;;;;;5084749;28;11570;-75
2021/12/17 10:07:20;;;;;;;;;64.25;51.75;;;;;;;;5079672;28;11573;-74
2021/12/17 10:09:49;;;;;;;;;55.75;45.50;;;;;;;;5044463;28;11646;-74
2021/12/17 10:12:16;;;;;;;;;69.00;53.25;;;;;;;;5081051;28;11540;-75
2021/12/17 10:14:57;;;;;;;;;57.00;47.25;;;;;;;;5083743;28;12360;-74
2021/12/17 10:17:29;;;;;;;;;62.25;49.75;;;;;;;;5085533;28;11573;-76
2021/12/17 10:19:57;;;;;;;;;55.25;45.00;;;;;;;;5084336;28;11539;-75
2021/12/17 10:22:26;;;;;;;;;59.00;48.50;;;;;;;;5092403;28;11545;-76
2021/12/17 10:25:06;;;;;;;;;64.00;50.50;;;;;;;;5071651;28;11707;-75
2021/12/17 10:27:37;;;;;;;;;63.50;49.25;;;;;;;;5083173;28;11521;-76
2021/12/17 10:30:12;;;;;;;;;64.00;51.50;;;;;;;;5083838;28;11502;-76
2021/12/17 10:32:42;;;;;;;;;64.50;49.75;;;;;;;;5083739;28;11548;-76
2021/12/17 10:35:12;;;;;;;;;62.75;50.00;;;;;;;;5084467;28;11558;-75
2021/12/17 10:37:44;;;;;;;;;62.00;49.50;;;;;;;;5087602;28;11570;-75
2021/12/17 10:40:26;;;;;;;;;62.75;50.25;;;;;;;;5082899;28;11530;-75
2021/12/17 10:43:01;;;;;;;;;53.25;41.25;;;;;;;;5079438;28;11600;-75
2021/12/17 10:45:31;;;;;;;;;52.00;42.00;;;;;;;;5083469;28;12864;-76
2021/12/17 10:48:22;;;;;;;;;64.25;51.50;;;;;;;;5084249;28;11639;-76
2021/12/17 10:50:50;;;;;;;;;61.00;49.50;;;;;;;;5083666;28;11492;-75
2021/12/17 10:53:23;;;;;;;;;57.75;46.25;;;;;;;;5078516;28;11499;-76
2021/12/17 10:55:50;;;;;;;;;58.00;46.00;;;;;;;;5084061;28;11520;-76
2021/12/17 10:58:20;;;;;;;;;50.75;42.25;;;;;;;;5074838;28;11515;-76
2021/12/17 11:00:50;;;;;;;;;59.00;43.00;;;;;;;;5082839;28;11521;-76
2021/12/17 11:03:18;;;;;;;;;55.75;46.75;;;;;;;;5069832;28;11510;-76
2021/12/17 11:05:45;;;;;;;;;57.00;44.75;;;;;;;;5087987;28;11633;-76
2021/12/17 11:08:28;;;;;;;;;57.00;48.00;;;;;;;;5088713;28;11501;-76
2021/12/17 11:11:00;;;;;;;;;59.75;48.25;;;;;;;;5069050;28;11547;-76
2021/12/17 11:13:28;;;;;;;;;50.50;42.00;;;;;;;;5088241;28;11571;-77
2021/12/17 11:15:57;;;;;;;;;54.25;40.25;;;;;;;;5080607;28;11564;-76
2021/12/17 11:18:27;;;;;;;;;56.75;44.50;;;;;;;;5080047;28;11494;-76
2021/12/17 11:20:56;;;;;;;;;46.00;40.00;;;;;;;;5091111;28;11455;-75
2021/12/17 11:23:27;;;;;;;;;46.75;40.00;;;;;;;;5092111;28;11376;-76
2021/12/17 11:25:55;;;;;;;;;54.50;42.50;;;;;;;;5088192;28;11618;-76
2021/12/17 11:28:25;;;;;;;;;51.50;44.00;;;;;;;;5086697;28;11624;-76
2021/12/17 11:30:53;;;;;;;;;55.50;43.75;;;;;;;;5087339;28;11133;-76
2021/12/17 11:33:23;;;;;;;;;49.75;43.25;;;;;;;;5073180;28;11541;-75
2021/12/17 11:35:51;;;;;;;;;47.75;42.25;;;;;;;;5081028;28;11408;-76
2021/12/17 11:38:26;;;;;;;;;50.50;40.75;;;;;;;;5071428;28;11204;-77
2021/12/17 11:40:58;;;;;;;;;49.00;42.75;;;;;;;;5081831;28;11061;-76
2021/12/17 11:43:48;;;;;;;;;43.75;38.50;;;;;;;;5070942;28;11053;-76
2021/12/17 11:46:17;;;;;;;;;45.75;41.25;;;;;;;;5076212;28;11054;-76
2021/12/17 11:48:52;;;;;;;;;29.75;23.00;;;;;;;;5090572;28;11005;-75
2021/12/17 11:51:23;;;;;;;;;42.00;38.25;;;;;;;;5081958;28;10804;-76
2021/12/17 11:54:08;;;;;;;;;47.00;41.75;;;;;;;;5083141;28;11037;-75
2021/12/17 11:56:44;;;;;;;;;32.50;28.75;;;;;;;;5083414;28;10975;-77
2021/12/17 11:59:32;;;;;;;;;43.00;37.50;;;;;;;;5079285;28;10735;-76
2021/12/17 12:02:08;;;;;;;;;41.25;37.25;;;;;;;;5080365;28;10757;-76
2021/12/17 12:04:52;;;;;;;;;40.50;37.00;;;;;;;;5082114;28;10891;-78
2021/12/17 12:07:22;;;;;;;;;47.75;40.75;;;;;;;;5071795;28;10766;-79
2021/12/17 12:10:21;;;;;;;;;45.50;37.00;;;;;;;;5071338;28;10854;-79
2021/12/17 12:13:01;;;;;;;;;66.50;53.50;;;;;;;;5082592;28;10835;-77
2021/12/17 12:15:37;;;;;;;;;52.25;43.00;;;;;;;;5085557;28;11583;-75
2021/12/17 12:18:13;;;;;;;;;56.50;43.75;;;;;;;;5068587;28;12020;-76
2021/12/17 12:20:55;;;;;;;;;43.50;37.75;;;;;;;;5078336;28;11229;-74
2021/12/17 12:23:26;;;;;;;;;54.00;43.50;;;;;;;;5073372;28;11345;-75
2021/12/17 12:26:14;;;;;;;;;51.25;44.25;;;;;;;;5070764;28;11263;-72
2021/12/17 12:28:48;;;;;;;;;37.00;33.25;;;;;;;;5067021;28;11264;-73
2021/12/17 12:31:53;;;;;;;;;38.75;31.75;;;;;;;;5076894;28;10840;-72
2021/12/17 12:34:23;;;;;;;;;39.25;37.75;;;;;;;;5041966;28;10737;-72
2021/12/17 12:36:53;;;;;;;;;38.50;37.75;;;;;;;;5082759;28;10942;-74
2021/12/17 12:39:22;;;;;;;;;48.50;39.75;;;;;;;;5075971;28;10679;-73
2021/12/17 12:42:00;;;;;;;;;47.75;40.25;;;;;;;;5068779;28;10997;-73
2021/12/17 12:45:09;;;;;;;;;41.75;37.25;;;;;;;;5066568;28;11006;-72
2021/12/17 12:47:58;;;;;;;;;40.50;37.25;;;;;;;;5069010;28;10883;-71
2021/12/17 12:50:27;;;;;;;;;36.75;34.00;;;;;;;;5074094;28;10993;-72
2021/12/17 12:52:57;;;;;;;;;45.00;38.75;;;;;;;;5076382;28;10747;-72
2021/12/17 12:55:28;;;;;;;;;44.00;39.25;;;;;;;;5082854;28;10994;-72
2021/12/17 12:58:06;;;;;;;;;43.50;37.50;;;;;;;;5081640;28;10860;-73
2021/12/17 13:00:36;;;;;;;;;38.75;36.75;;;;;;;;5076002;28;10761;-71
2021/12/17 13:03:06;;;;;;;;;43.75;38.25;;;;;;;;5082012;28;10821;-73
2021/12/17 13:05:35;;;;;;;;;36.50;32.75;;;;;;;;5078067;28;10725;-72
2021/12/17 13:08:04;;;;;;;;;38.50;33.00;;;;;;;;5076508;28;11533;-72
2021/12/17 13:10:34;;;;;;;;;40.25;36.50;;;;;;;;5076587;28;10838;-76
2021/12/17 13:13:07;;;;;;;;;42.75;39.00;;;;;;;;5071870;28;10850;-75
2021/12/17 13:15:46;;;;;;;;;46.25;38.00;;;;;;;;5081623;28;10897;-76
2021/12/17 13:21:19;;;;;;;;;40.00;34.25;;;;;;;;5088911;28;10867;-73
2021/12/17 13:23:51;;;;;;;;;43.00;36.50;;;;;;;;5087105;28;10862;-74
2021/12/17 13:26:21;;;;;;;;;44.25;36.00;;;;;;;;5064322;28;11612;-75
2021/12/17 13:28:54;;;;;;;;;33.75;23.75;;;;;;;;5065374;28;10923;-73
2021/12/17 13:31:42;;;;;;;;;34.75;32.75;;;;;;;;5072415;28;10681;-75
2021/12/17 13:34:26;;;;;;;;;31.75;28.00;;;;;;;;5076604;28;10683;-76
2021/12/17 13:36:57;;;;;;;;;37.00;33.75;;;;;;;;5083902;28;10807;-76
2021/12/17 13:39:26;;;;;;;;;37.00;33.75;;;;;;;;5084091;28;11404;-74
2021/12/17 13:41:54;;;;;;;;;30.50;27.25;;;;;;;;5085299;28;10726;-73
2021/12/17 13:44:33;;;;;;;;;31.00;28.00;;;;;;;;5085516;28;10643;-76
2021/12/17 13:47:28;;;;;;;;;34.75;32.00;;;;;;;;5084410;28;10599;-75
2021/12/17 13:50:08;;;;;;;;;27.25;26.25;;;;;;;;5060770;28;10810;-74
2021/12/17 13:52:37;;;;;;;;;30.75;29.50;;;;;;;;5081132;28;10730;-76
2021/12/17 13:55:08;;;;;;;;;25.50;19.25;;;;;;;;5074518;28;10637;-74
2021/12/17 13:57:36;;;;;;;;;36.75;29.25;;;;;;;;5084882;28;10425;-75
2021/12/17 14:00:09;;;;;;;;;31.25;29.00;;;;;;;;5083805;28;10521;-76
2021/12/17 14:02:38;;;;;;;;;32.00;28.75;;;;;;;;5084770;28;10448;-74
2021/12/17 14:05:08;;;;;;;;;26.00;21.00;;;;;;;;5077489;28;10456;-74
2021/12/17 14:07:36;;;;;;;;;26.00;25.50;;;;;;;;5084495;28;10479;-75
2021/12/17 14:10:08;;;;;;;;;26.75;24.75;;;;;;;;5083746;28;10408;-75
2021/12/17 14:12:39;;;;;;;;;29.50;26.50;;;;;;;;5084946;28;10511;-76
2021/12/17 14:15:13;;;;;;;;;26.00;25.50;;;;;;;;5084567;28;10336;-76
2021/12/17 14:17:42;;;;;;;;;33.25;29.75;;;;;;;;5083971;28;10486;-76
2021/12/17 14:20:12;;;;;;;;;33.00;29.50;;;;;;;;5084505;28;10522;-76
2021/12/17 14:22:42;;;;;;;;;39.25;34.25;;;;;;;;5088153;28;10619;-76
2021/12/17 14:25:34;;;;;;;;;36.50;32.50;;;;;;;;5066760;28;10872;-74
2021/12/17 14:28:08;;;;;;;;;33.00;29.25;;;;;;;;5066239;28;10582;-75
2021/12/17 14:30:38;;;;;;;;;28.25;24.75;;;;;;;;5071113;28;10713;-75
2021/12/17 14:33:11;;;;;;;;;28.75;26.50;;;;;;;;5085191;28;10550;-74
2021/12/17 14:35:54;;;;;;;;;36.00;31.75;;;;;;;;5083490;28;10488;-76
2021/12/17 14:38:24;;;;;;;;;28.50;27.00;;;;;;;;5079984;28;10528;-75
2021/12/17 14:40:56;;;;;;;;;25.75;25.75;;;;;;;;5083043;28;10521;-75
2021/12/17 14:43:26;;;;;;;;;33.75;31.50;;;;;;;;5083929;28;11311;-74
2021/12/17 14:46:06;;;;;;;;;34.25;34.25;;;;;;;;5084056;28;10414;-76
2021/12/17 14:48:41;;;;;;;;;48.00;36.50;;;;;;;;5082734;28;10876;-75
2021/12/17 15:04:54;;;;;;;;;50.25;39.50;;;;;;;;5070446;28;11486;-76
2021/12/17 15:07:23;;;;;;;;;31.00;29.00;;;;;;;;5084441;28;10934;-76
2021/12/17 15:09:50;;;;;;;;;39.00;35.00;;;;;;;;5081444;28;10606;-73
2021/12/17 15:14:59;;;;;;;;;39.25;34.50;;;;;;;;5076710;28;10838;-75
2021/12/17 15:17:28;;;;;;;;;42.00;37.00;;;;;;;;5083757;28;10935;-76
2021/12/17 15:19:55;;;;;;;;;36.50;34.50;;;;;;;;5083813;28;10822;-73
2021/12/17 15:22:22;;;;;;;;;41.75;37.00;;;;;;;;5073314;28;10757;-74
2021/12/17 15:24:50;;;;;;;;;34.00;29.75;;;;;;;;5083749;28;11633;-73
2021/12/17 15:27:17;;;;;;;;;36.50;33.00;;;;;;;;5082961;28;10766;-75
2021/12/17 15:29:44;;;;;;;;;38.25;37.25;;;;;;;;5063705;28;10856;-76
2021/12/17 15:32:12;;;;;;;;;33.75;31.50;;;;;;;;5081272;28;10880;-72
2021/12/17 15:34:41;;;;;;;;;44.00;37.50;;;;;;;;5083829;28;11124;-74
2021/12/17 15:37:08;;;;;;;;;31.25;29.25;;;;;;;;5085951;28;11032;-73
2021/12/17 15:39:36;;;;;;;;;43.75;35.75;;;;;;;;5083179;28;11021;-74
2021/12/17 15:42:05;;;;;;;;;39.50;34.25;;;;;;;;5083537;28;11374;-75
2021/12/17 15:44:32;;;;;;;;;41.50;37.75;;;;;;;;5068418;28;11178;-72
2021/12/17 15:47:00;;;;;;;;;45.75;37.50;;;;;;;;5084208;28;11237;-72
2021/12/17 15:49:27;;;;;;;;;48.75;39.25;;;;;;;;5072740;28;11229;-73
2021/12/17 15:51:56;;;;;;;;;42.25;37.00;;;;;;;;5081374;28;11464;-75
2021/12/17 15:54:24;;;;;;;;;47.25;38.00;;;;;;;;5086534;28;11514;-73
2021/12/17 15:56:51;;;;;;;;;45.25;37.00;;;;;;;;5087153;28;11520;-75
2021/12/17 15:59:19;;;;;;;;;47.00;39.25;;;;;;;;5073144;28;11463;-75
2021/12/17 16:01:46;;;;;;;;;51.25;43.00;;;;;;;;5085736;28;11472;-75
2021/12/17 16:04:14;;;;;;;;;49.75;43.50;;;;;;;;5084158;28;11493;-75
2021/12/17 16:06:41;;;;;;;;;47.25;40.25;;;;;;;;5059938;28;11491;-74
2021/12/17 16:09:29;;;;;;;;;45.50;40.75;;;;;;;;5086843;28;11523;-75
2021/12/17 16:12:05;;;;;;;;;52.25;41.50;;;;;;;;5072628;28;11505;-75
2021/12/17 16:22:43;;;;;;;;;58.00;45.50;;;;;;;;5087322;28;11484;-75
2021/12/17 16:25:11;;;;;;;;;46.75;40.75;;;;;;;;5084853;28;12319;-76
2021/12/17 16:27:39;;;;;;;;;57.25;44.50;;;;;;;;5084517;28;12215;-75
2021/12/17 16:30:08;;;;;;;;;59.50;47.00;;;;;;;;5082440;28;11475;-74
2021/12/17 16:32:35;;;;;;;;;57.50;48.75;;;;;;;;5080215;28;11644;-74
2021/12/17 16:35:03;;;;;;;;;51.25;42.25;;;;;;;;5077153;28;11537;-74
2021/12/17 16:37:32;;;;;;;;;55.25;45.75;;;;;;;;5079491;28;11480;-74
2021/12/17 16:40:02;;;;;;;;;47.75;40.75;;;;;;;;5086910;28;11663;-72
2021/12/17 16:42:31;;;;;;;;;60.50;48.50;;;;;;;;5067682;28;12341;-74
2021/12/17 16:45:21;;;;;;;;;63.25;50.50;;;;;;;;5047675;28;11630;-73
2021/12/17 16:47:49;;;;;;;;;57.25;45.00;;;;;;;;5077279;28;11536;-74
2021/12/17 16:50:17;;;;;;;;;55.25;45.50;;;;;;;;5079488;28;12427;-87
2021/12/17 16:52:44;;;;;;;;;64.00;47.25;;;;;;;;5078911;28;11599;-81
2021/12/17 16:55:14;;;;;;;;;62.25;46.75;;;;;;;;5076460;28;11566;-84
2021/12/17 16:57:43;;;;;;;;;56.50;44.75;;;;;;;;5068054;28;11578;-86
2021/12/17 17:00:12;;;;;;;;;75.00;56.50;;;;;;;;5069936;28;11631;-87
2021/12/17 17:02:39;;;;;;;;;61.75;48.25;;;;;;;;5084077;28;11563;-88
2021/12/17 17:05:08;;;;;;;;;61.25;50.00;;;;;;;;5083184;28;11705;-89
2021/12/17 17:07:35;;;;;;;;;65.50;52.00;;;;;;;;5086761;28;11535;-87
2021/12/17 17:10:03;;;;;;;;;62.50;49.00;;;;;;;;5087296;28;11561;-88
2021/12/17 17:12:31;;;;;;;;;73.25;56.25;;;;;;;;5075466;28;11559;-87
2021/12/17 17:15:01;;;;;;;;;60.00;49.75;;;;;;;;5061053;28;11582;-89
2021/12/17 17:17:28;;;;;;;;;57.25;47.00;;;;;;;;5086151;28;11552;-89